Time;durP1;ratioP1;P1;durP2;ratioP2;P2;SDS_P1;SDS_P2;PMS_P1;PMS_P2;Temp;Humidity;BMP_temperature;BMP_pressure;BME280_temperature;BME280_humidity;BME280_pressure;Samples;Min_cycle;Max_cycle;Signal;HPM_P1;HPM_P2
2023/12/24 00:02:14;;;;;;;1.05;0.80;;;7.70;99.90;;;;;;5011646;28;20592;-76
2023/12/24 00:04:42;;;;;;;0.70;0.70;;;7.60;99.90;;;;;;5011298;28;20211;-76
2023/12/24 00:07:09;;;;;;;0.70;0.70;;;7.60;99.90;;;;;;5011160;28;20206;-76
2023/12/24 00:09:35;;;;;;;0.90;0.80;;;7.60;99.90;;;;;;5010725;28;20230;-76
2023/12/24 00:12:03;;;;;;;0.90;0.75;;;7.70;99.90;;;;;;5011326;28;20226;-77
2023/12/24 00:14:31;;;;;;;1.00;0.90;;;7.70;99.90;;;;;;5010845;28;20210;-76
2023/12/24 04:30:47;;;;;;;0.90;0.82;;;7.70;99.90;;;;;;5973118;22;20299;-90
2023/12/24 04:33:13;;;;;;;0.85;0.80;;;7.70;99.90;;;;;;5026408;28;20648;-91
2023/12/24 04:35:41;;;;;;;0.80;0.77;;;7.70;99.90;;;;;;5020894;28;20218;-90
2023/12/24 04:38:07;;;;;;;0.80;0.70;;;7.80;99.90;;;;;;5026345;28;20285;-90
2023/12/24 04:40:34;;;;;;;0.80;0.70;;;7.80;99.90;;;;;;5040048;28;20198;-89
2023/12/24 04:43:01;;;;;;;0.90;0.80;;;7.70;99.90;;;;;;5030116;28;20202;-90
2023/12/24 04:45:28;;;;;;;0.95;0.80;;;7.70;99.90;;;;;;5033937;28;20195;-90
2023/12/24 04:47:58;;;;;;;0.70;0.70;;;7.80;99.90;;;;;;5034286;28;20199;-90
2023/12/24 04:50:25;;;;;;;0.95;0.80;;;7.80;99.90;;;;;;5036441;28;20221;-91
2023/12/24 04:52:52;;;;;;;0.90;0.80;;;7.80;99.90;;;;;;5027964;28;20212;-91
2023/12/24 04:55:19;;;;;;;1.00;0.90;;;7.80;99.90;;;;;;5025182;28;20211;-92
2023/12/24 04:57:46;;;;;;;1.20;0.93;;;7.80;99.90;;;;;;5016185;28;20210;-91
2023/12/24 05:00:14;;;;;;;2.08;1.02;;;7.80;99.90;;;;;;5015060;28;20195;-92
2023/12/24 05:02:40;;;;;;;1.17;1.00;;;7.60;99.90;;;;;;5008895;28;20230;-91
2023/12/24 05:05:09;;;;;;;0.88;0.77;;;7.60;99.90;;;;;;5017357;28;20207;-91
2023/12/24 05:07:36;;;;;;;1.27;0.90;;;7.60;99.90;;;;;;5018061;28;20218;-91
2023/12/24 05:10:03;;;;;;;0.88;0.88;;;7.50;99.90;;;;;;5016695;28;20322;-92
2023/12/24 05:12:30;;;;;;;0.80;0.80;;;7.50;99.90;;;;;;5016839;28;20248;-92
2023/12/24 05:15:07;;;;;;;1.15;0.88;;;7.60;99.90;;;;;;5016781;28;20211;-92
2023/12/24 05:20:49;;;;;;;0.95;0.85;;;7.50;99.90;;;;;;5004788;28;20234;-92
2023/12/24 05:23:16;;;;;;;0.80;0.80;;;7.60;99.90;;;;;;4999192;28;20542;-91
2023/12/24 05:25:43;;;;;;;1.20;1.10;;;7.40;99.90;;;;;;5007211;28;20206;-92
2023/12/24 05:28:10;;;;;;;0.80;0.70;;;7.40;99.90;;;;;;5004089;28;20579;-92
2023/12/24 05:30:37;;;;;;;1.00;0.88;;;7.40;99.90;;;;;;5002167;28;20237;-92
2023/12/24 05:33:04;;;;;;;0.80;0.75;;;7.40;99.90;;;;;;5003763;28;20207;-92
2023/12/24 05:35:30;;;;;;;0.80;0.60;;;7.40;99.90;;;;;;5005635;28;20207;-91
2023/12/24 05:37:58;;;;;;;0.90;0.80;;;7.50;99.90;;;;;;5003442;28;20214;-92
2023/12/24 05:40:25;;;;;;;1.00;0.70;;;7.40;99.90;;;;;;5000785;28;20200;-91
2023/12/24 05:42:52;;;;;;;1.23;0.82;;;7.30;99.90;;;;;;5003262;28;20207;-93
2023/12/24 05:45:19;;;;;;;0.80;0.70;;;7.30;99.90;;;;;;5006313;28;20207;-92
2023/12/24 05:47:45;;;;;;;1.00;0.88;;;7.40;99.90;;;;;;5001404;28;20230;-91
2023/12/24 05:50:12;;;;;;;0.70;0.60;;;7.40;99.90;;;;;;5007562;28;20740;-92
2023/12/24 05:52:41;;;;;;;0.90;0.80;;;7.40;99.90;;;;;;5006616;28;20608;-91
2023/12/24 05:55:10;;;;;;;1.10;0.90;;;7.40;99.90;;;;;;4999809;28;20211;-92
2023/12/24 05:57:37;;;;;;;0.90;0.70;;;7.50;99.90;;;;;;5002123;28;20302;-92
2023/12/24 06:00:06;;;;;;;1.00;0.80;;;7.40;99.90;;;;;;5002553;28;20574;-90
2023/12/24 06:02:32;;;;;;;1.33;1.17;;;7.40;99.90;;;;;;5002754;28;20285;-91
2023/12/24 06:04:59;;;;;;;0.73;0.68;;;7.40;99.90;;;;;;5006414;28;20207;-91
2023/12/24 06:07:26;;;;;;;0.90;0.80;;;7.20;99.90;;;;;;5007110;28;20203;-91
2023/12/24 06:09:52;;;;;;;0.70;0.70;;;7.40;99.90;;;;;;5005955;28;20216;-92
2023/12/24 06:12:21;;;;;;;0.70;0.70;;;7.50;99.90;;;;;;5009220;28;20606;-92
2023/12/24 06:14:47;;;;;;;1.10;0.90;;;7.40;99.90;;;;;;4996126;28;20196;-92
2023/12/24 06:17:14;;;;;;;0.93;0.80;;;7.50;99.90;;;;;;5000951;28;20226;-91
2023/12/24 06:19:41;;;;;;;0.80;0.70;;;7.40;99.90;;;;;;5000577;28;20208;-91
2023/12/24 06:22:07;;;;;;;0.70;0.70;;;7.40;99.90;;;;;;4998617;28;20706;-91
2023/12/24 06:24:35;;;;;;;1.13;0.95;;;7.40;99.90;;;;;;5003285;28;20301;-91
2023/12/24 06:27:01;;;;;;;0.98;0.80;;;7.40;99.90;;;;;;5000569;28;20231;-90
2023/12/24 06:29:29;;;;;;;0.80;0.70;;;7.40;99.90;;;;;;5006190;28;20219;-91
2023/12/24 06:31:56;;;;;;;0.80;0.70;;;7.40;99.90;;;;;;5002857;28;20226;-91
2023/12/24 06:34:23;;;;;;;0.80;0.70;;;7.50;99.90;;;;;;5006591;28;20763;-91
2023/12/24 06:36:50;;;;;;;0.70;0.60;;;7.40;99.90;;;;;;5003170;28;20200;-92
2023/12/24 06:39:17;;;;;;;0.80;0.70;;;7.40;99.90;;;;;;5002809;28;20693;-92
2023/12/24 06:41:45;;;;;;;0.70;0.60;;;7.40;99.90;;;;;;5000683;28;20228;-91
2023/12/24 06:44:12;;;;;;;0.80;0.75;;;7.50;99.90;;;;;;5016215;28;20323;-90
2023/12/24 06:46:40;;;;;;;0.80;0.80;;;7.50;99.90;;;;;;5017229;28;20207;-90
2023/12/24 06:49:07;;;;;;;0.70;0.60;;;7.50;99.90;;;;;;5018528;28;20208;-93
2023/12/24 06:51:34;;;;;;;1.13;0.80;;;7.50;99.90;;;;;;5022568;28;20253;-92
2023/12/24 06:57:25;;;;;;;0.70;0.70;;;7.60;99.90;;;;;;5015761;28;20242;-92
2023/12/24 06:59:57;;;;;;;0.88;0.80;;;7.60;99.90;;;;;;5022851;28;20249;-93
2023/12/24 07:02:26;;;;;;;0.90;0.75;;;7.60;99.90;;;;;;5032911;28;20231;-94
2023/12/24 07:04:53;;;;;;;0.80;0.70;;;7.70;99.90;;;;;;5019637;28;20278;-94
2023/12/24 07:07:19;;;;;;;1.10;1.00;;;7.60;99.90;;;;;;5018053;28;20278;-92
2023/12/24 07:09:46;;;;;;;1.08;0.75;;;7.60;99.90;;;;;;5017064;28;20231;-92
2023/12/24 07:12:13;;;;;;;0.90;0.77;;;7.70;99.90;;;;;;5011241;28;20311;-93
2023/12/24 07:14:40;;;;;;;0.70;0.60;;;7.70;99.90;;;;;;5009933;28;20207;-92
2023/12/24 07:17:07;;;;;;;1.42;0.98;;;7.70;99.90;;;;;;5020304;28;20217;-92
2023/12/24 07:19:35;;;;;;;0.70;0.65;;;7.70;99.90;;;;;;5020400;28;20214;-93
2023/12/24 07:22:02;;;;;;;1.38;0.70;;;7.60;99.90;;;;;;5027817;28;20314;-93
2023/12/24 07:24:29;;;;;;;1.00;0.90;;;7.80;99.90;;;;;;5014050;28;20203;-94
2023/12/24 07:26:56;;;;;;;0.80;0.75;;;7.80;99.90;;;;;;5020062;28;20215;-93
2023/12/24 07:29:23;;;;;;;0.77;0.70;;;7.80;99.90;;;;;;5030456;28;20195;-93
2023/12/24 07:31:50;;;;;;;0.70;0.70;;;7.90;99.90;;;;;;5006692;28;20246;-92
2023/12/24 07:34:17;;;;;;;0.90;0.80;;;7.80;99.90;;;;;;5012289;28;20222;-91
2023/12/24 07:36:45;;;;;;;0.80;0.77;;;7.90;99.90;;;;;;5015229;28;20289;-92
2023/12/24 07:39:12;;;;;;;1.08;0.70;;;8.00;99.90;;;;;;5027005;28;20199;-93
2023/12/24 07:44:47;;;;;;;0.70;0.63;;;7.90;99.90;;;;;;5018970;28;20218;-77
2023/12/24 07:47:13;;;;;;;1.00;0.90;;;7.90;99.90;;;;;;5020599;28;20217;-77
2023/12/24 07:49:40;;;;;;;0.70;0.70;;;7.90;99.90;;;;;;5013712;28;20236;-78
2023/12/24 07:52:08;;;;;;;0.80;0.77;;;8.00;99.90;;;;;;5012724;28;20227;-78
2023/12/24 07:54:35;;;;;;;1.35;0.90;;;8.00;99.90;;;;;;5012256;28;20211;-76
2023/12/24 07:57:02;;;;;;;0.80;0.70;;;8.00;99.90;;;;;;5010539;28;20207;-77
2023/12/24 07:59:28;;;;;;;0.70;0.60;;;8.00;99.90;;;;;;5009390;28;20215;-78
2023/12/24 08:01:55;;;;;;;0.70;0.60;;;8.00;99.90;;;;;;5012109;28;20230;-78
2023/12/24 08:04:22;;;;;;;0.70;0.60;;;8.00;99.90;;;;;;5012712;28;20833;-77
2023/12/24 08:06:50;;;;;;;0.88;0.80;;;8.00;99.90;;;;;;5010151;28;20206;-79
2023/12/24 08:09:18;;;;;;;0.70;0.70;;;8.00;99.90;;;;;;5010575;28;20206;-76
2023/12/24 08:11:45;;;;;;;0.80;0.70;;;8.10;99.90;;;;;;5010993;28;20231;-77
2023/12/24 08:14:12;;;;;;;0.80;0.70;;;8.00;99.90;;;;;;5010196;28;20206;-78
2023/12/24 08:16:38;;;;;;;0.70;0.60;;;8.10;99.90;;;;;;5009750;28;20718;-76
2023/12/24 08:19:05;;;;;;;0.73;0.68;;;8.10;99.90;;;;;;5009529;28;20208;-78
2023/12/24 08:21:32;;;;;;;0.70;0.60;;;8.10;99.90;;;;;;5009639;28;20215;-76
2023/12/24 08:23:59;;;;;;;0.80;0.60;;;8.10;99.90;;;;;;5010156;28;20211;-76
2023/12/24 08:26:27;;;;;;;0.90;0.75;;;8.20;99.90;;;;;;5010003;28;20210;-76
2023/12/24 08:28:54;;;;;;;0.70;0.60;;;8.20;99.90;;;;;;5009861;28;20245;-78
2023/12/24 08:31:20;;;;;;;1.00;0.80;;;8.20;99.90;;;;;;5009496;28;20618;-76
2023/12/24 08:33:47;;;;;;;0.90;0.70;;;8.20;99.90;;;;;;5010725;28;20297;-76
2023/12/24 08:36:14;;;;;;;1.05;0.73;;;8.20;99.90;;;;;;5014085;28;20206;-74
2023/12/24 08:38:41;;;;;;;0.90;0.77;;;8.30;99.90;;;;;;5006521;28;20211;-75
2023/12/24 08:41:07;;;;;;;0.70;0.60;;;8.30;99.90;;;;;;5013384;28;20238;-78
2023/12/24 08:43:35;;;;;;;0.70;0.60;;;8.30;99.90;;;;;;4967518;28;1068757;-78
2023/12/24 08:46:03;;;;;;;0.70;0.60;;;8.40;99.90;;;;;;4995490;28;20408;-79
2023/12/24 08:48:30;;;;;;;0.70;0.60;;;8.40;99.90;;;;;;4996018;28;20234;-75
2023/12/24 08:50:57;;;;;;;0.70;0.60;;;8.50;99.90;;;;;;4994767;28;20703;-75
2023/12/24 08:53:23;;;;;;;0.70;0.60;;;8.50;99.90;;;;;;4994886;28;20211;-77
2023/12/24 08:55:50;;;;;;;0.80;0.80;;;8.50;99.90;;;;;;4995025;28;20208;-76
2023/12/24 08:58:18;;;;;;;0.70;0.60;;;8.50;99.90;;;;;;4993523;28;20214;-74
2023/12/24 09:00:46;;;;;;;0.70;0.60;;;8.50;99.90;;;;;;4993432;28;20314;-75
2023/12/24 09:03:12;;;;;;;0.70;0.70;;;8.50;99.90;;;;;;4998266;28;20684;-79
2023/12/24 09:05:39;;;;;;;0.70;0.60;;;8.60;99.90;;;;;;4997673;28;20219;-76
2023/12/24 09:08:06;;;;;;;0.85;0.70;;;8.60;99.90;;;;;;4994525;28;20214;-79
2023/12/24 09:10:33;;;;;;;0.77;0.70;;;8.60;99.90;;;;;;4994101;28;20227;-75
2023/12/24 09:12:59;;;;;;;0.70;0.60;;;8.70;99.90;;;;;;4994595;28;20579;-76
2023/12/24 09:15:26;;;;;;;0.70;0.70;;;8.70;99.90;;;;;;4995760;28;20238;-78
2023/12/24 09:17:54;;;;;;;0.80;0.70;;;8.80;99.90;;;;;;4997200;28;20669;-78
2023/12/24 09:20:21;;;;;;;1.10;0.82;;;8.80;99.90;;;;;;4996815;28;20211;-77
2023/12/24 09:22:47;;;;;;;2.30;0.80;;;8.80;99.90;;;;;;4998221;28;20215;-78
2023/12/24 09:25:14;;;;;;;1.33;0.90;;;8.80;99.90;;;;;;4996816;28;20208;-77
2023/12/24 09:27:41;;;;;;;0.95;0.80;;;8.70;99.90;;;;;;4994501;28;20279;-79
2023/12/24 09:30:08;;;;;;;0.80;0.70;;;8.70;99.90;;;;;;4999645;28;20702;-78
2023/12/24 09:32:35;;;;;;;0.80;0.70;;;8.70;99.90;;;;;;4998484;28;20915;-77
2023/12/24 09:35:04;;;;;;;0.80;0.70;;;8.70;99.90;;;;;;4993396;28;20323;-76
2023/12/24 09:37:31;;;;;;;0.70;0.60;;;8.60;99.90;;;;;;4995182;28;20217;-79
2023/12/24 09:39:58;;;;;;;1.10;1.00;;;8.60;99.90;;;;;;4994725;28;20212;-75
2023/12/24 09:42:25;;;;;;;2.85;1.25;;;8.60;99.90;;;;;;4997683;28;20254;-78
2023/12/24 09:44:52;;;;;;;0.80;0.70;;;8.70;99.90;;;;;;5001621;28;20562;-79
2023/12/24 09:47:19;;;;;;;1.65;0.70;;;8.60;99.90;;;;;;5000562;28;20215;-79
2023/12/24 09:49:46;;;;;;;1.00;0.90;;;8.70;99.90;;;;;;4998295;28;20600;-83
2023/12/24 09:52:14;;;;;;;0.90;0.80;;;8.70;99.90;;;;;;4998100;28;20224;-77
2023/12/24 09:54:43;;;;;;;0.70;0.60;;;8.70;99.90;;;;;;4996874;28;20203;-79
2023/12/24 09:57:09;;;;;;;0.70;0.70;;;8.70;99.90;;;;;;4995822;28;20582;-77
2023/12/24 09:59:36;;;;;;;0.98;0.82;;;8.70;99.90;;;;;;4993211;28;20210;-75
2023/12/24 10:02:03;;;;;;;0.80;0.80;;;8.60;99.90;;;;;;4993817;28;20240;-77
2023/12/24 10:04:30;;;;;;;1.00;0.90;;;8.60;99.90;;;;;;4995376;28;20199;-78
2023/12/24 10:06:58;;;;;;;0.80;0.70;;;8.70;99.90;;;;;;4995132;28;20199;-78
2023/12/24 10:09:42;;;;;;;1.23;0.80;;;8.70;99.90;;;;;;4996258;28;20238;-79
2023/12/24 10:12:10;;;;;;;1.80;1.42;;;8.70;99.90;;;;;;4997219;28;20604;-79
2023/12/24 10:14:38;;;;;;;0.70;0.70;;;8.70;99.90;;;;;;4999402;28;20212;-79
2023/12/24 10:17:05;;;;;;;0.80;0.70;;;8.70;99.90;;;;;;4996831;28;20203;-78
2023/12/24 10:19:32;;;;;;;1.10;1.00;;;8.70;99.90;;;;;;4995387;28;20687;-79
2023/12/24 10:22:00;;;;;;;0.80;0.80;;;8.80;99.90;;;;;;4996879;28;20245;-78
2023/12/24 10:24:30;;;;;;;0.80;0.80;;;8.80;99.90;;;;;;4997218;28;20617;-78
2023/12/24 10:27:04;;;;;;;0.80;0.77;;;8.90;99.90;;;;;;4996828;28;20296;-78
2023/12/24 10:29:31;;;;;;;0.90;0.80;;;9.00;99.90;;;;;;4995841;28;20198;-79
2023/12/24 10:31:58;;;;;;;0.80;0.75;;;9.00;99.90;;;;;;4994636;28;20223;-77
2023/12/24 10:34:25;;;;;;;0.80;0.70;;;9.10;99.90;;;;;;4993950;28;20684;-78
2023/12/24 10:36:51;;;;;;;1.80;0.80;;;9.10;99.90;;;;;;4993835;28;20207;-75
2023/12/24 10:39:24;;;;;;;0.80;0.70;;;9.10;99.90;;;;;;4993797;28;20215;-77
2023/12/24 10:41:53;;;;;;;0.80;0.70;;;9.10;99.90;;;;;;4994189;28;20246;-78
2023/12/24 10:44:20;;;;;;;1.23;0.75;;;9.10;99.90;;;;;;5009716;28;20203;-78
2023/12/24 10:46:47;;;;;;;1.70;0.90;;;9.20;99.90;;;;;;5012995;28;20226;-78
2023/12/24 10:49:14;;;;;;;0.80;0.70;;;9.20;99.90;;;;;;5012646;28;20210;-77
2023/12/24 10:51:40;;;;;;;1.00;0.80;;;9.20;99.90;;;;;;5011130;28;20226;-77
2023/12/24 10:54:08;;;;;;;0.70;0.60;;;9.30;99.90;;;;;;5013017;28;20674;-78
2023/12/24 10:56:47;;;;;;;0.80;0.70;;;9.40;99.90;;;;;;5011320;28;20239;-78
2023/12/24 10:59:30;;;;;;;0.90;0.70;;;9.40;99.90;;;;;;5012622;28;20213;-78
2023/12/24 11:01:56;;;;;;;1.00;0.80;;;9.40;99.90;;;;;;5000971;28;20245;-79
2023/12/24 11:04:45;;;;;;;0.80;0.70;;;9.40;99.90;;;;;;5011900;28;20203;-78
2023/12/24 11:07:45;;;;;;;0.80;0.70;;;9.40;99.90;;;;;;5005644;28;20614;-78
2023/12/24 11:10:39;;;;;;;0.70;0.60;;;9.40;99.90;;;;;;5002635;28;20203;-77
2023/12/24 11:13:09;;;;;;;1.05;0.95;;;9.50;99.90;;;;;;5001187;28;20207;-76
2023/12/24 11:15:44;;;;;;;0.90;0.73;;;9.50;99.90;;;;;;5008765;28;20242;-77
2023/12/24 11:18:11;;;;;;;0.80;0.70;;;9.50;99.90;;;;;;5010083;28;20211;-77
2023/12/24 11:20:42;;;;;;;0.82;0.70;;;9.50;99.90;;;;;;4989360;28;20229;-77
2023/12/24 11:23:16;;;;;;;0.70;0.60;;;9.50;99.90;;;;;;4984462;28;20566;-78
2023/12/24 11:25:44;;;;;;;0.70;0.60;;;9.60;99.90;;;;;;4990747;28;20990;-77
2023/12/24 11:28:12;;;;;;;0.90;0.80;;;9.60;99.90;;;;;;5000681;28;20586;-77
2023/12/24 11:31:09;;;;;;;0.80;0.60;;;9.70;99.90;;;;;;5003140;28;20609;-78
2023/12/24 11:33:48;;;;;;;0.70;0.60;;;9.70;99.90;;;;;;5009126;28;20282;-78
2023/12/24 11:36:17;;;;;;;1.00;0.80;;;9.70;99.90;;;;;;5009969;28;20226;-78
2023/12/24 11:38:45;;;;;;;1.23;1.00;;;9.80;99.90;;;;;;5009131;28;20239;-78
2023/12/24 11:41:13;;;;;;;0.80;0.80;;;9.80;99.90;;;;;;5012348;28;20238;-78
2023/12/24 11:43:42;;;;;;;0.80;0.70;;;9.80;99.90;;;;;;4997309;28;20232;-77
2023/12/24 11:46:10;;;;;;;0.70;0.60;;;9.80;99.90;;;;;;4992218;28;20205;-77
2023/12/24 11:48:37;;;;;;;0.80;0.70;;;9.80;99.90;;;;;;4991314;28;20210;-78
2023/12/24 11:51:06;;;;;;;0.90;0.75;;;9.80;99.90;;;;;;5002403;28;20229;-78
2023/12/24 11:53:35;;;;;;;1.10;0.90;;;9.90;99.90;;;;;;4992812;28;20670;-78
2023/12/24 11:56:08;;;;;;;0.90;0.70;;;9.90;99.90;;;;;;5008534;28;20237;-78
2023/12/24 11:58:35;;;;;;;1.00;0.90;;;10.00;99.90;;;;;;5012396;28;20254;-79
2023/12/24 12:01:02;;;;;;;1.17;0.75;;;10.00;99.90;;;;;;5014051;28;20225;-80
2023/12/24 12:03:31;;;;;;;0.70;0.60;;;10.00;99.90;;;;;;5014575;28;20240;-79
2023/12/24 12:05:58;;;;;;;0.80;0.70;;;9.80;99.90;;;;;;5012866;28;20284;-78
2023/12/24 12:08:25;;;;;;;0.80;0.70;;;9.70;99.90;;;;;;4997540;28;20810;-78
2023/12/24 12:10:51;;;;;;;0.80;0.70;;;9.70;99.90;;;;;;4994522;28;20610;-78
2023/12/24 12:13:19;;;;;;;0.80;0.60;;;9.60;99.90;;;;;;4992387;28;20205;-78
2023/12/24 12:15:45;;;;;;;0.80;0.70;;;9.70;99.90;;;;;;4999435;28;20697;-79
2023/12/24 12:18:14;;;;;;;0.70;0.60;;;9.80;99.90;;;;;;4993422;28;20206;-78
2023/12/24 12:20:42;;;;;;;0.70;0.70;;;10.00;99.90;;;;;;4989782;28;20233;-78
2023/12/24 12:23:09;;;;;;;1.00;0.90;;;10.20;99.90;;;;;;4991708;28;20210;-77
2023/12/24 12:25:36;;;;;;;0.80;0.73;;;10.20;99.90;;;;;;4991387;28;20210;-78
2023/12/24 12:28:03;;;;;;;0.82;0.73;;;10.20;99.90;;;;;;4991354;28;20208;-79
2023/12/24 12:30:30;;;;;;;0.80;0.70;;;10.10;99.90;;;;;;4990709;28;20279;-79
2023/12/24 12:32:57;;;;;;;0.70;0.60;;;10.10;99.90;;;;;;4991201;28;20221;-78
2023/12/24 12:35:24;;;;;;;0.93;0.77;;;10.10;99.90;;;;;;4991298;28;20593;-78
2023/12/24 12:37:52;;;;;;;1.27;1.17;;;10.00;99.90;;;;;;4990748;28;20209;-78
2023/12/24 12:40:18;;;;;;;0.70;0.70;;;9.90;99.90;;;;;;4990873;28;20203;-78
2023/12/24 12:42:45;;;;;;;0.80;0.70;;;9.70;99.90;;;;;;4990894;28;20229;-76
2023/12/24 12:45:13;;;;;;;0.80;0.70;;;9.60;99.90;;;;;;4991274;28;20208;-78
2023/12/24 12:47:40;;;;;;;0.90;0.70;;;9.60;99.90;;;;;;4992146;28;20593;-82
2023/12/24 12:50:07;;;;;;;0.90;0.80;;;9.60;99.90;;;;;;4992534;28;20205;-77
2023/12/24 12:52:34;;;;;;;0.77;0.68;;;9.60;99.90;;;;;;4990973;28;20228;-77
2023/12/24 12:55:03;;;;;;;0.70;0.70;;;9.50;99.90;;;;;;4997328;28;20210;-77
2023/12/24 12:57:32;;;;;;;0.75;0.70;;;9.50;99.90;;;;;;4992164;28;20210;-77
2023/12/24 13:00:09;;;;;;;1.17;0.75;;;9.50;99.90;;;;;;4989048;28;20214;-76
2023/12/24 13:02:36;;;;;;;0.70;0.60;;;9.60;99.90;;;;;;5000285;28;20331;-78
2023/12/24 13:05:04;;;;;;;0.70;0.70;;;9.60;99.90;;;;;;4991345;28;20217;-80
2023/12/24 13:07:31;;;;;;;0.90;0.80;;;9.60;99.90;;;;;;4991267;28;20208;-80
2023/12/24 13:09:57;;;;;;;0.80;0.75;;;9.60;99.90;;;;;;4997877;28;20277;-78
2023/12/24 13:12:25;;;;;;;0.80;0.70;;;9.50;99.90;;;;;;5001189;28;20302;-78
2023/12/24 13:14:56;;;;;;;0.90;0.68;;;9.50;99.90;;;;;;4998521;28;20575;-78
2023/12/24 13:17:24;;;;;;;0.90;0.70;;;9.60;99.90;;;;;;5009256;28;20214;-78
2023/12/24 13:19:51;;;;;;;0.80;0.70;;;9.60;99.90;;;;;;5001251;28;20206;-79
2023/12/24 13:22:19;;;;;;;0.70;0.60;;;9.60;99.90;;;;;;5002202;28;20620;-78
2023/12/24 13:24:47;;;;;;;0.70;0.60;;;9.50;99.90;;;;;;5001614;28;20209;-78
2023/12/24 13:27:16;;;;;;;1.10;0.95;;;9.50;99.90;;;;;;5002108;28;20206;-78
2023/12/24 13:29:44;;;;;;;0.80;0.70;;;9.50;99.90;;;;;;4999056;28;20221;-79
2023/12/24 13:32:11;;;;;;;0.80;0.70;;;9.50;99.90;;;;;;5001560;28;20230;-80
2023/12/24 13:34:38;;;;;;;0.80;0.70;;;9.50;99.90;;;;;;5003572;28;20229;-77
2023/12/24 13:37:05;;;;;;;0.85;0.70;;;9.40;99.90;;;;;;4995861;28;20290;-78
2023/12/24 13:39:33;;;;;;;0.93;0.80;;;9.40;99.90;;;;;;4994683;28;20733;-78
2023/12/24 13:42:00;;;;;;;0.70;0.65;;;9.40;99.90;;;;;;5013242;28;20220;-79
2023/12/24 13:44:27;;;;;;;0.95;0.75;;;9.40;99.90;;;;;;5017224;28;20277;-79
2023/12/24 13:46:55;;;;;;;0.80;0.75;;;9.30;99.90;;;;;;5001703;28;20228;-77
2023/12/24 13:49:22;;;;;;;0.88;0.75;;;9.30;99.90;;;;;;5013690;28;20211;-78
2023/12/24 13:51:48;;;;;;;2.47;1.00;;;9.30;99.90;;;;;;5013289;28;20217;-83
2023/12/24 13:54:15;;;;;;;0.98;0.88;;;9.30;99.90;;;;;;5012285;28;20205;-78
2023/12/24 13:56:42;;;;;;;1.02;0.93;;;9.20;99.90;;;;;;5002304;28;20222;-76
2023/12/24 13:59:08;;;;;;;0.80;0.70;;;9.20;99.90;;;;;;4998040;28;20203;-77
2023/12/24 14:01:36;;;;;;;0.90;0.80;;;9.20;99.90;;;;;;4993668;28;20243;-76
2023/12/24 14:04:04;;;;;;;0.80;0.80;;;9.20;99.90;;;;;;4992482;28;20301;-76
2023/12/24 14:06:31;;;;;;;0.90;0.80;;;9.30;99.90;;;;;;4993090;28;20210;-74
2023/12/24 14:08:59;;;;;;;1.15;0.80;;;9.30;99.90;;;;;;4992267;28;20300;-76
2023/12/24 14:11:25;;;;;;;0.70;0.60;;;9.30;99.90;;;;;;4993074;28;20238;-76
2023/12/24 14:13:52;;;;;;;0.70;0.60;;;9.30;99.90;;;;;;4995789;28;20216;-76
2023/12/24 14:16:19;;;;;;;0.80;0.70;;;9.30;99.90;;;;;;4996975;28;20596;-78
2023/12/24 14:18:46;;;;;;;0.98;0.85;;;9.20;99.90;;;;;;4999123;28;20208;-78
2023/12/24 14:21:14;;;;;;;0.70;0.60;;;9.20;99.90;;;;;;4999401;28;20233;-78
2023/12/24 14:23:40;;;;;;;1.00;0.90;;;9.20;99.90;;;;;;4994270;28;20212;-77
2023/12/24 14:26:08;;;;;;;0.70;0.63;;;9.30;99.90;;;;;;4996541;28;20215;-78
2023/12/24 14:28:34;;;;;;;0.80;0.60;;;9.30;99.90;;;;;;5004156;28;20220;-78
2023/12/24 14:31:01;;;;;;;0.82;0.77;;;9.30;99.90;;;;;;4998184;28;20239;-77
2023/12/24 14:33:28;;;;;;;0.73;0.63;;;9.30;99.90;;;;;;4997384;28;20227;-77
2023/12/24 14:35:55;;;;;;;0.80;0.70;;;9.30;99.90;;;;;;4999853;28;20307;-78
2023/12/24 14:38:23;;;;;;;0.70;0.60;;;9.30;99.90;;;;;;5000013;28;20219;-80
2023/12/24 14:40:50;;;;;;;0.90;0.80;;;9.30;99.90;;;;;;5000133;28;20230;-78
2023/12/24 14:43:16;;;;;;;0.70;0.60;;;9.30;99.90;;;;;;4999956;28;20282;-78
2023/12/24 14:45:43;;;;;;;0.90;0.70;;;9.30;99.90;;;;;;4992589;28;20220;-76
2023/12/24 14:48:10;;;;;;;0.70;0.70;;;9.40;99.90;;;;;;4992493;28;20210;-77
2023/12/24 14:50:36;;;;;;;0.70;0.70;;;9.40;99.90;;;;;;4991900;28;20234;-77
2023/12/24 14:53:04;;;;;;;0.70;0.60;;;9.40;99.90;;;;;;4994315;28;20692;-77
2023/12/24 14:55:32;;;;;;;0.80;0.70;;;9.40;99.90;;;;;;4997202;28;20222;-78
2023/12/24 14:57:58;;;;;;;0.85;0.68;;;9.40;99.90;;;;;;5000005;28;20214;-77
2023/12/24 15:00:25;;;;;;;1.00;0.80;;;9.40;99.90;;;;;;4998502;28;20211;-78
2023/12/24 15:02:52;;;;;;;0.70;0.70;;;9.40;99.90;;;;;;4998877;28;20201;-78
2023/12/24 15:05:19;;;;;;;0.80;0.70;;;9.40;99.90;;;;;;5003136;28;20232;-78
2023/12/24 15:07:46;;;;;;;1.35;0.70;;;9.40;99.90;;;;;;4995497;28;20674;-76
2023/12/24 15:10:13;;;;;;;0.95;0.85;;;9.40;99.90;;;;;;4995241;28;20222;-77
2023/12/24 15:12:41;;;;;;;1.27;0.70;;;9.40;99.90;;;;;;4994634;28;20225;-78
2023/12/24 15:15:09;;;;;;;0.75;0.65;;;9.40;99.90;;;;;;4996611;28;20210;-76
2023/12/24 15:17:35;;;;;;;0.80;0.68;;;9.30;99.90;;;;;;4991682;28;20220;-76
2023/12/24 15:20:03;;;;;;;0.80;0.70;;;9.30;99.90;;;;;;4991137;28;20212;-75
2023/12/24 15:22:30;;;;;;;0.70;0.70;;;9.20;99.90;;;;;;4991395;28;20705;-75
2023/12/24 15:24:57;;;;;;;0.90;0.80;;;9.10;99.90;;;;;;4991773;28;20213;-75
2023/12/24 15:27:23;;;;;;;1.40;1.00;;;9.20;99.90;;;;;;4992159;28;20236;-75
2023/12/24 15:29:52;;;;;;;0.77;0.70;;;9.20;99.90;;;;;;4994622;28;20211;-76
2023/12/24 15:32:18;;;;;;;3.47;1.20;;;9.20;99.90;;;;;;4991403;28;20228;-76
2023/12/24 15:34:45;;;;;;;2.08;1.17;;;9.10;99.90;;;;;;4991238;28;20214;-76
2023/12/24 15:37:12;;;;;;;0.90;0.70;;;9.10;99.90;;;;;;4991949;28;20254;-76
2023/12/24 15:39:38;;;;;;;1.00;0.80;;;9.20;99.90;;;;;;5002208;28;20687;-77
2023/12/24 15:42:06;;;;;;;0.80;0.70;;;9.20;99.90;;;;;;4992254;28;20593;-77
2023/12/24 15:44:32;;;;;;;0.90;0.70;;;9.20;99.90;;;;;;4992575;28;20220;-77
2023/12/24 15:47:00;;;;;;;1.20;0.93;;;9.20;99.90;;;;;;4991185;28;20594;-76
2023/12/24 15:49:27;;;;;;;0.70;0.70;;;9.30;99.90;;;;;;4991500;28;20208;-77
2023/12/24 15:51:54;;;;;;;1.30;0.80;;;9.30;99.90;;;;;;4990497;28;20757;-77
2023/12/24 15:54:21;;;;;;;0.80;0.70;;;9.30;99.90;;;;;;4991336;28;20207;-76
2023/12/24 15:56:47;;;;;;;1.75;0.90;;;9.30;99.90;;;;;;4990957;28;20216;-77
2023/12/24 15:59:14;;;;;;;3.80;0.93;;;9.30;99.90;;;;;;4990813;28;20678;-76
2023/12/24 16:01:42;;;;;;;0.70;0.70;;;9.30;99.90;;;;;;4986296;28;20754;-77
2023/12/24 16:04:11;;;;;;;4.60;0.93;;;9.30;99.90;;;;;;4990762;28;20209;-77
2023/12/24 16:06:38;;;;;;;2.78;0.80;;;9.30;99.90;;;;;;4992027;28;20218;-76
2023/12/24 16:09:05;;;;;;;2.67;1.05;;;9.30;99.90;;;;;;4992002;28;20295;-76
2023/12/24 16:11:34;;;;;;;0.95;0.80;;;9.30;99.90;;;;;;4991704;28;20221;-78
2023/12/24 16:14:00;;;;;;;0.90;0.70;;;9.30;99.90;;;;;;4991318;28;20700;-77
2023/12/24 16:16:27;;;;;;;0.88;0.70;;;9.30;99.90;;;;;;4987770;28;20219;-77
2023/12/24 16:18:54;;;;;;;0.70;0.60;;;9.30;99.90;;;;;;4988077;28;20212;-77
2023/12/24 16:21:22;;;;;;;0.98;0.88;;;9.30;99.90;;;;;;4988592;28;20658;-77
2023/12/24 16:23:48;;;;;;;1.23;0.70;;;9.30;99.90;;;;;;4997359;28;20201;-78
2023/12/24 16:26:15;;;;;;;0.75;0.70;;;9.30;99.90;;;;;;4988866;28;20759;-74
2023/12/24 16:28:42;;;;;;;0.70;0.60;;;9.30;99.90;;;;;;4989373;28;20213;-76
2023/12/24 16:31:09;;;;;;;0.80;0.70;;;9.30;99.90;;;;;;4988589;28;20312;-75
2023/12/24 16:33:37;;;;;;;0.80;0.80;;;9.30;99.90;;;;;;4987320;28;20231;-78
2023/12/24 16:36:06;;;;;;;0.80;0.70;;;9.40;99.90;;;;;;4985699;28;20579;-76
2023/12/24 16:38:36;;;;;;;0.85;0.75;;;9.50;99.90;;;;;;4988375;28;20216;-76
2023/12/24 16:41:03;;;;;;;0.70;0.60;;;9.50;99.90;;;;;;4991800;28;20224;-79
2023/12/24 16:43:30;;;;;;;0.70;0.60;;;9.50;99.90;;;;;;5002820;28;20242;-79
2023/12/24 16:45:57;;;;;;;0.70;0.70;;;9.50;99.90;;;;;;5001725;28;20217;-81
2023/12/24 16:48:24;;;;;;;0.80;0.70;;;9.50;99.90;;;;;;5009430;28;20225;-79
2023/12/24 16:50:50;;;;;;;0.70;0.70;;;9.50;99.90;;;;;;5002298;28;20252;-78
2023/12/24 16:53:18;;;;;;;1.20;0.95;;;9.50;99.90;;;;;;5008413;28;20658;-78
2023/12/24 16:55:46;;;;;;;1.35;0.95;;;9.50;99.90;;;;;;5005188;28;20223;-78
2023/12/24 16:58:13;;;;;;;1.40;0.85;;;9.50;99.90;;;;;;5013958;28;20221;-78
2023/12/24 17:00:40;;;;;;;0.70;0.60;;;9.50;99.90;;;;;;5006028;28;20236;-79
2023/12/24 17:03:07;;;;;;;1.17;0.90;;;9.50;99.90;;;;;;5009382;28;20232;-78
2023/12/24 17:05:34;;;;;;;0.70;0.60;;;9.60;99.90;;;;;;5002099;28;20217;-78
2023/12/24 17:08:01;;;;;;;0.90;0.70;;;9.50;99.90;;;;;;5001708;28;20232;-78
2023/12/24 17:10:28;;;;;;;0.80;0.70;;;9.50;99.90;;;;;;5006142;28;20209;-79
2023/12/24 17:12:56;;;;;;;1.00;0.90;;;9.50;99.90;;;;;;5009859;28;20775;-79
2023/12/24 17:15:24;;;;;;;0.82;0.80;;;9.50;99.90;;;;;;5003220;28;20235;-78
2023/12/24 17:17:52;;;;;;;0.80;0.70;;;9.50;99.90;;;;;;5005360;28;20228;-79
2023/12/24 17:20:22;;;;;;;1.35;0.90;;;9.50;99.90;;;;;;5000154;28;20308;-78
2023/12/24 17:22:49;;;;;;;0.95;0.80;;;9.50;99.90;;;;;;5002215;28;20469;-78
2023/12/24 17:25:16;;;;;;;1.08;0.93;;;9.50;99.90;;;;;;5003630;28;20223;-78